Whiting Field Naval Air Station north Airport Milton US
ICAO: KNSE
IATA: NSE
Category: Medium
Scheduled Services: No

Elevation: 199 ft
TransAlt. 18000 ft.

Airport Communications:
PENSACOLA APP/DEP:127.35
ATIS:29.032
CLNC DEL:25.777
GND:25.115
BASE OPS:23.37
PMSV METRO:31.695
TWR:121.4

KNSE Zoom In..

Runways:

(A) RW 05 length 6002 ft width 200 ft
---- / hdg 49

(B) RW 14 length 6002 ft width 200 ft
ILS 111.75 / hdg 139

(C) RW 23 length 6002 ft width 200 ft
---- / hdg 229

(D) RW 32 length 6002 ft width 200 ft
---- / hdg 319

Location; KNSE
Day. 20 / Time. 19.56 Zulu
* Altimeter: 29.94
* Temperature: 32° c. 89.6°f.
* Wind from: 330° Speed 05 kn.
Dewpoint: 24° c.
Visibility: 10 Statute Miles.
Clouds: Scattered 3700 ft.
Clouds: Scattered 25000 ft.

KNSE 201956Z 33005KT 10SM SCT037 SCT250 32/24 A2994 RMK AO2 SLP121 T03220244 $


Wind From 330°
Speed 05 kn.

 
 
jpsmedia.com for Web Design worldairports.se 2018   terms of use